KFRH/FRH METAR and TAF weather

Enter ICAO airport designator
Station Type Date Time Source
KFRH METAR 2019/02/22 23:15 UTC NOAA

KFRH 222315Z AUTO 07009KT 10SM SCT065 OVC075 06/M03 A3026 RMK AO1


Station Type Date Time Source
KFRH Decoded METAR 2019/02/22 23:15 UTC NOAA

Station name not available
Feb 22, 2019 - 06:15 PM EST / 2019.02.22 2315 UTC
Wind: from the ENE (070 degrees) at 10 MPH (9 KT):0
Visibility: 10 mile(s):0
Sky conditions: overcast
Temperature: 42 F (6 C)
Dew Point: 26 F (-3 C)
Relative Humidity: 52%
Pressure (altimeter): 30.26 in. Hg (1024 hPa)
ob: KFRH 222315Z AUTO 07009KT 10SM SCT065 OVC075 06/M03 A3026 RMK AO1
cycle: 23

Station Type Date Time Source
KFRH TAF UTC NOAA

Error!


Example: see airport list